sensor_id;sensor_type;location;lat;lon;timestamp;pressure;altitude;pressure_sealevel;temperature;humidity
51359;BME280;37448;51.588;7.248;2023-07-31T00:00:20;100459.72;;;14.84;100.00
51359;BME280;37448;51.588;7.248;2023-07-31T00:02:20;100454.41;;;14.85;100.00
51359;BME280;37448;51.588;7.248;2023-07-31T00:04:20;100459.75;;;14.82;100.00
51359;BME280;37448;51.588;7.248;2023-07-31T00:06:21;100449.00;;;14.88;100.00
51359;BME280;37448;51.588;7.248;2023-07-31T00:08:21;100452.47;;;14.89;100.00
51359;BME280;37448;51.588;7.248;2023-07-31T00:10:22;100438.41;;;14.90;100.00
51359;BME280;37448;51.588;7.248;2023-07-31T00:12:22;100444.47;;;14.92;100.00
51359;BME280;37448;51.588;7.248;2023-07-31T00:14:23;100440.06;;;14.92;100.00
51359;BME280;37448;51.588;7.248;2023-07-31T00:16:24;100443.53;;;14.93;100.00
51359;BME280;37448;51.588;7.248;2023-07-31T00:18:24;100439.16;;;14.93;100.00
51359;BME280;37448;51.588;7.248;2023-07-31T00:20:25;100439.97;;;14.94;100.00
51359;BME280;37448;51.588;7.248;2023-07-31T00:22:25;100433.75;;;14.97;100.00
51359;BME280;37448;51.588;7.248;2023-07-31T00:24:26;100433.88;;;14.93;100.00
51359;BME280;37448;51.588;7.248;2023-07-31T00:26:26;100430.28;;;14.96;100.00
51359;BME280;37448;51.588;7.248;2023-07-31T00:28:26;100432.19;;;14.92;100.00
51359;BME280;37448;51.588;7.248;2023-07-31T00:30:28;100425.34;;;14.88;100.00
51359;BME280;37448;51.588;7.248;2023-07-31T00:32:29;100426.94;;;14.92;100.00
51359;BME280;37448;51.588;7.248;2023-07-31T00:34:29;100420.34;;;14.82;100.00
51359;BME280;37448;51.588;7.248;2023-07-31T00:36:30;100423.66;;;14.87;100.00
51359;BME280;37448;51.588;7.248;2023-07-31T00:38:30;100429.56;;;14.92;100.00
51359;BME280;37448;51.588;7.248;2023-07-31T00:40:37;100423.38;;;14.93;100.00
51359;BME280;37448;51.588;7.248;2023-07-31T00:42:38;100423.22;;;14.97;100.00
51359;BME280;37448;51.588;7.248;2023-07-31T00:44:39;100418.13;;;14.93;100.00
51359;BME280;37448;51.588;7.248;2023-07-31T00:46:39;100420.69;;;14.95;100.00
51359;BME280;37448;51.588;7.248;2023-07-31T00:48:40;100419.81;;;14.95;100.00
51359;BME280;37448;51.588;7.248;2023-07-31T00:50:41;100428.34;;;15.00;100.00
51359;BME280;37448;51.588;7.248;2023-07-31T00:52:41;100419.69;;;14.98;100.00
51359;BME280;37448;51.588;7.248;2023-07-31T00:54:42;100419.41;;;15.04;100.00
51359;BME280;37448;51.588;7.248;2023-07-31T00:56:45;100421.13;;;15.05;100.00
51359;BME280;37448;51.588;7.248;2023-07-31T00:58:46;100405.34;;;15.05;100.00
51359;BME280;37448;51.588;7.248;2023-07-31T01:00:46;100409.69;;;15.06;100.00
51359;BME280;37448;51.588;7.248;2023-07-31T01:02:48;100414.94;;;15.06;100.00
51359;BME280;37448;51.588;7.248;2023-07-31T01:04:48;100421.91;;;15.07;100.00
51359;BME280;37448;51.588;7.248;2023-07-31T01:07:14;100403.78;;;15.01;100.00
51359;BME280;37448;51.588;7.248;2023-07-31T01:11:34;100415.94;;;15.03;100.00
51359;BME280;37448;51.588;7.248;2023-07-31T01:13:35;100412.31;;;15.06;100.00
51359;BME280;37448;51.588;7.248;2023-07-31T01:15:36;100415.84;;;15.05;100.00
51359;BME280;37448;51.588;7.248;2023-07-31T01:17:38;100407.03;;;15.06;100.00
51359;BME280;37448;51.588;7.248;2023-07-31T01:19:39;100406.94;;;15.09;100.00
51359;BME280;37448;51.588;7.248;2023-07-31T01:22:12;100408.75;;;15.07;100.00
51359;BME280;37448;51.588;7.248;2023-07-31T01:26:34;100406.13;;;15.07;100.00
51359;BME280;37448;51.588;7.248;2023-07-31T01:28:55;100414.81;;;15.09;100.00
51359;BME280;37448;51.588;7.248;2023-07-31T01:30:58;100408.75;;;15.07;100.00
51359;BME280;37448;51.588;7.248;2023-07-31T01:33:00;100413.22;;;15.05;100.00
51359;BME280;37448;51.588;7.248;2023-07-31T01:35:04;100414.00;;;15.07;100.00
51359;BME280;37448;51.588;7.248;2023-07-31T01:37:05;100414.94;;;15.06;100.00
51359;BME280;37448;51.588;7.248;2023-07-31T01:39:05;100414.00;;;15.07;100.00
51359;BME280;37448;51.588;7.248;2023-07-31T01:41:05;100397.34;;;15.08;100.00
51359;BME280;37448;51.588;7.248;2023-07-31T01:43:06;100407.88;;;15.08;100.00
51359;BME280;37448;51.588;7.248;2023-07-31T01:45:07;100397.34;;;15.08;100.00
51359;BME280;37448;51.588;7.248;2023-07-31T01:47:08;100396.66;;;15.03;100.00
51359;BME280;37448;51.588;7.248;2023-07-31T01:49:08;100395.59;;;15.07;100.00
51359;BME280;37448;51.588;7.248;2023-07-31T01:51:09;100391.28;;;15.06;100.00
51359;BME280;37448;51.588;7.248;2023-07-31T01:53:10;100391.34;;;15.04;100.00
51359;BME280;37448;51.588;7.248;2023-07-31T01:55:12;100395.75;;;15.04;100.00
51359;BME280;37448;51.588;7.248;2023-07-31T01:57:12;100395.59;;;15.07;100.00
51359;BME280;37448;51.588;7.248;2023-07-31T01:59:13;100394.97;;;15.02;100.00
51359;BME280;37448;51.588;7.248;2023-07-31T02:01:13;100394.19;;;15.00;100.00
51359;BME280;37448;51.588;7.248;2023-07-31T02:03:13;100396.81;;;15.00;100.00
51359;BME280;37448;51.588;7.248;2023-07-31T02:05:14;100398.38;;;15.04;100.00
51359;BME280;37448;51.588;7.248;2023-07-31T02:07:14;100387.06;;;15.02;100.00
51359;BME280;37448;51.588;7.248;2023-07-31T02:09:15;100390.75;;;14.98;100.00
51359;BME280;37448;51.588;7.248;2023-07-31T02:11:15;100406.25;;;15.04;100.00
51359;BME280;37448;51.588;7.248;2023-07-31T02:13:16;100394.13;;;15.01;100.00
51359;BME280;37448;51.588;7.248;2023-07-31T02:15:16;100393.41;;;14.98;100.00
51359;BME280;37448;51.588;7.248;2023-07-31T02:17:16;100389.78;;;15.00;100.00
51359;BME280;37448;51.588;7.248;2023-07-31T02:19:17;100393.47;;;14.96;100.00
51359;BME280;37448;51.588;7.248;2023-07-31T02:21:18;100388.91;;;15.00;100.00
51359;BME280;37448;51.588;7.248;2023-07-31T02:23:19;100379.47;;;14.96;100.00
51359;BME280;37448;51.588;7.248;2023-07-31T02:25:19;100375.91;;;14.97;100.00
51359;BME280;37448;51.588;7.248;2023-07-31T02:27:20;100377.56;;;14.99;100.00
51359;BME280;37448;51.588;7.248;2023-07-31T02:29:24;100380.56;;;14.90;100.00
51359;BME280;37448;51.588;7.248;2023-07-31T02:31:24;100388.31;;;14.93;100.00
51359;BME280;37448;51.588;7.248;2023-07-31T02:33:25;100388.13;;;14.98;100.00
51359;BME280;37448;51.588;7.248;2023-07-31T02:35:25;100388.28;;;14.95;100.00
51359;BME280;37448;51.588;7.248;2023-07-31T02:37:26;100375.19;;;14.93;100.00
51359;BME280;37448;51.588;7.248;2023-07-31T02:39:26;100380.38;;;14.95;100.00
51359;BME280;37448;51.588;7.248;2023-07-31T02:41:26;100381.44;;;14.90;100.00
51359;BME280;37448;51.588;7.248;2023-07-31T02:43:27;100376.97;;;14.92;100.00
51359;BME280;37448;51.588;7.248;2023-07-31T02:45:28;100376.19;;;14.90;100.00
51359;BME280;37448;51.588;7.248;2023-07-31T02:47:28;100374.47;;;14.89;100.00
51359;BME280;37448;51.588;7.248;2023-07-31T02:49:28;100377.94;;;14.90;100.00
51359;BME280;37448;51.588;7.248;2023-07-31T02:51:29;100381.44;;;14.90;100.00
51359;BME280;37448;51.588;7.248;2023-07-31T02:53:30;100375.41;;;14.88;100.00
51359;BME280;37448;51.588;7.248;2023-07-31T02:55:30;100380.66;;;14.88;100.00
51359;BME280;37448;51.588;7.248;2023-07-31T02:57:31;100363.97;;;14.89;100.00
51359;BME280;37448;51.588;7.248;2023-07-31T02:59:32;100369.38;;;14.86;100.00
51359;BME280;37448;51.588;7.248;2023-07-31T03:01:32;100370.34;;;14.84;100.00
51359;BME280;37448;51.588;7.248;2023-07-31T03:03:32;100370.34;;;14.84;100.00
51359;BME280;37448;51.588;7.248;2023-07-31T03:05:33;100369.50;;;14.83;100.00
51359;BME280;37448;51.588;7.248;2023-07-31T03:07:34;100367.75;;;14.82;100.00
51359;BME280;37448;51.588;7.248;2023-07-31T03:09:34;100364.09;;;14.86;100.00
51359;BME280;37448;51.588;7.248;2023-07-31T03:11:35;100367.66;;;14.85;100.00
51359;BME280;37448;51.588;7.248;2023-07-31T03:13:35;100353.59;;;14.86;100.00
51359;BME280;37448;51.588;7.248;2023-07-31T03:15:36;100362.50;;;14.82;100.00
51359;BME280;37448;51.588;7.248;2023-07-31T03:17:36;100359.81;;;14.84;100.00
51359;BME280;37448;51.588;7.248;2023-07-31T03:19:36;100358.16;;;14.81;100.00
51359;BME280;37448;51.588;7.248;2023-07-31T03:21:37;100358.25;;;14.80;100.00
51359;BME280;37448;51.588;7.248;2023-07-31T03:23:37;100360.81;;;14.81;100.00
51359;BME280;37448;51.588;7.248;2023-07-31T03:25:41;100350.56;;;14.75;100.00
51359;BME280;37448;51.588;7.248;2023-07-31T03:27:42;100346.88;;;14.79;100.00
51359;BME280;37448;51.588;7.248;2023-07-31T03:29:43;100359.97;;;14.81;100.00
51359;BME280;37448;51.588;7.248;2023-07-31T03:31:43;100366.94;;;14.82;100.00
51359;BME280;37448;51.588;7.248;2023-07-31T03:33:43;100367.84;;;14.81;100.00
51359;BME280;37448;51.588;7.248;2023-07-31T03:35:44;100359.88;;;14.82;100.00
51359;BME280;37448;51.588;7.248;2023-07-31T03:37:45;100376.56;;;14.81;100.00
51359;BME280;37448;51.588;7.248;2023-07-31T03:39:45;100374.75;;;14.83;100.00
51359;BME280;37448;51.588;7.248;2023-07-31T03:41:46;100373.16;;;14.79;100.00
51359;BME280;37448;51.588;7.248;2023-07-31T03:43:49;100373.28;;;14.76;100.00
51359;BME280;37448;51.588;7.248;2023-07-31T03:45:52;100365.28;;;14.79;100.00
51359;BME280;37448;51.588;7.248;2023-07-31T03:47:53;100372.19;;;14.82;100.00
51359;BME280;37448;51.588;7.248;2023-07-31T03:49:54;100362.50;;;14.82;100.00
51359;BME280;37448;51.588;7.248;2023-07-31T03:51:55;100363.56;;;14.78;100.00
51359;BME280;37448;51.588;7.248;2023-07-31T03:53:56;100358.31;;;14.78;100.00
51359;BME280;37448;51.588;7.248;2023-07-31T03:55:56;100361.81;;;14.78;100.00
51359;BME280;37448;51.588;7.248;2023-07-31T03:57:56;100352.91;;;14.81;100.00
51359;BME280;37448;51.588;7.248;2023-07-31T03:59:57;100352.72;;;14.86;100.00
51359;BME280;37448;51.588;7.248;2023-07-31T04:01:58;100352.81;;;14.84;100.00
51359;BME280;37448;51.588;7.248;2023-07-31T04:03:58;100343.22;;;14.83;100.00
51359;BME280;37448;51.588;7.248;2023-07-31T04:05:58;100353.91;;;14.78;100.00
51359;BME280;37448;51.588;7.248;2023-07-31T04:07:59;100351.88;;;14.85;100.00
51359;BME280;37448;51.588;7.248;2023-07-31T04:09:59;100352.84;;;14.83;100.00
51359;BME280;37448;51.588;7.248;2023-07-31T04:12:00;100351.03;;;14.85;100.00
51359;BME280;37448;51.588;7.248;2023-07-31T04:14:00;100353.59;;;14.86;100.00
51359;BME280;37448;51.588;7.248;2023-07-31T04:16:00;100350.97;;;14.86;100.00
51359;BME280;37448;51.588;7.248;2023-07-31T04:18:01;100352.00;;;14.82;100.00
51359;BME280;37448;51.588;7.248;2023-07-31T04:20:01;100346.63;;;14.85;100.00
51359;BME280;37448;51.588;7.248;2023-07-31T04:22:03;100350.75;;;14.91;100.00
51359;BME280;37448;51.588;7.248;2023-07-31T04:24:03;100344.78;;;14.87;100.00
51359;BME280;37448;51.588;7.248;2023-07-31T04:26:04;100353.44;;;14.89;100.00
51359;BME280;37448;51.588;7.248;2023-07-31T04:28:04;100340.22;;;14.91;100.00
51359;BME280;37448;51.588;7.248;2023-07-31T04:30:05;100343.72;;;14.91;100.00
51359;BME280;37448;51.588;7.248;2023-07-31T04:32:06;100336.75;;;14.90;100.00
51359;BME280;37448;51.588;7.248;2023-07-31T04:34:07;100333.84;;;14.97;100.00
51359;BME280;37448;51.588;7.248;2023-07-31T04:36:07;100332.13;;;14.96;100.00
51359;BME280;37448;51.588;7.248;2023-07-31T04:38:07;100328.59;;;14.97;100.00
51359;BME280;37448;51.588;7.248;2023-07-31T04:40:08;100328.44;;;15.00;100.00
51359;BME280;37448;51.588;7.248;2023-07-31T04:42:08;100334.00;;;14.93;100.00
51359;BME280;37448;51.588;7.248;2023-07-31T04:44:09;100333.66;;;15.01;100.00
51359;BME280;37448;51.588;7.248;2023-07-31T04:46:11;100339.75;;;15.02;100.00
51359;BME280;37448;51.588;7.248;2023-07-31T04:48:11;100337.97;;;15.02;100.00
51359;BME280;37448;51.588;7.248;2023-07-31T04:50:12;100335.34;;;15.02;100.00
51359;BME280;37448;51.588;7.248;2023-07-31T04:52:12;100338.13;;;14.99;100.00
51359;BME280;37448;51.588;7.248;2023-07-31T04:54:12;100336.00;;;15.07;100.00
51359;BME280;37448;51.588;7.248;2023-07-31T04:56:15;100339.50;;;15.08;100.00
51359;BME280;37448;51.588;7.248;2023-07-31T04:58:16;100332.63;;;15.04;100.00
51359;BME280;37448;51.588;7.248;2023-07-31T05:00:17;100332.59;;;15.05;100.00
51359;BME280;37448;51.588;7.248;2023-07-31T05:02:17;100336.06;;;15.06;100.00
51359;BME280;37448;51.588;7.248;2023-07-31T05:04:17;100329.88;;;15.07;100.00
51359;BME280;37448;51.588;7.248;2023-07-31T05:06:18;100330.00;;;15.04;100.00
51359;BME280;37448;51.588;7.248;2023-07-31T05:08:20;100324.59;;;15.07;100.00
51359;BME280;37448;51.588;7.248;2023-07-31T05:10:21;100328.06;;;15.09;100.00
51359;BME280;37448;51.588;7.248;2023-07-31T05:12:21;100318.47;;;15.08;100.00
51359;BME280;37448;51.588;7.248;2023-07-31T05:14:22;100321.91;;;15.09;100.00
51359;BME280;37448;51.588;7.248;2023-07-31T05:16:22;100322.78;;;15.09;100.00
51359;BME280;37448;51.588;7.248;2023-07-31T05:18:22;100319.94;;;15.14;100.00
51359;BME280;37448;51.588;7.248;2023-07-31T05:20:23;100311.34;;;15.10;100.00
51359;BME280;37448;51.588;7.248;2023-07-31T05:22:23;100313.97;;;15.10;100.00
51359;BME280;37448;51.588;7.248;2023-07-31T05:24:24;100315.53;;;15.14;100.00
51359;BME280;37448;51.588;7.248;2023-07-31T05:26:24;100308.28;;;15.19;100.00
51359;BME280;37448;51.588;7.248;2023-07-31T05:28:24;100312.75;;;15.17;100.00
51359;BME280;37448;51.588;7.248;2023-07-31T05:30:25;100307.34;;;15.20;100.00
51359;BME280;37448;51.588;7.248;2023-07-31T05:32:25;100306.44;;;15.21;100.00
51359;BME280;37448;51.588;7.248;2023-07-31T05:34:25;100311.53;;;15.25;100.00
51359;BME280;37448;51.588;7.248;2023-07-31T05:36:26;100299.19;;;15.27;100.00
51359;BME280;37448;51.588;7.248;2023-07-31T05:38:26;100306.28;;;15.25;100.00
51359;BME280;37448;51.588;7.248;2023-07-31T05:40:27;100302.72;;;15.26;100.00
51359;BME280;37448;51.588;7.248;2023-07-31T05:42:27;100294.06;;;15.24;100.00
51359;BME280;37448;51.588;7.248;2023-07-31T05:44:27;100293.75;;;15.30;100.00
51359;BME280;37448;51.588;7.248;2023-07-31T05:46:28;100290.34;;;15.28;100.00
51359;BME280;37448;51.588;7.248;2023-07-31T05:48:28;100293.75;;;15.30;100.00
51359;BME280;37448;51.588;7.248;2023-07-31T05:50:30;100292.22;;;15.26;100.00
51359;BME280;37448;51.588;7.248;2023-07-31T05:52:30;100284.31;;;15.26;100.00
51359;BME280;37448;51.588;7.248;2023-07-31T05:54:32;100286.88;;;15.27;100.00
51359;BME280;37448;51.588;7.248;2023-07-31T05:56:33;100282.56;;;15.26;100.00
51359;BME280;37448;51.588;7.248;2023-07-31T05:58:34;100276.44;;;15.26;100.00
51359;BME280;37448;51.588;7.248;2023-07-31T06:00:34;100277.28;;;15.26;100.00
51359;BME280;37448;51.588;7.248;2023-07-31T06:02:38;100280.69;;;15.28;100.00
51359;BME280;37448;51.588;7.248;2023-07-31T06:04:39;100262.34;;;15.27;100.00
51359;BME280;37448;51.588;7.248;2023-07-31T06:06:39;100262.34;;;15.27;100.00
51359;BME280;37448;51.588;7.248;2023-07-31T06:08:40;100266.78;;;15.26;100.00
51359;BME280;37448;51.588;7.248;2023-07-31T06:10:40;100267.56;;;15.28;100.00
51359;BME280;37448;51.588;7.248;2023-07-31T06:12:41;100259.66;;;15.28;100.00
51359;BME280;37448;51.588;7.248;2023-07-31T06:14:42;100267.63;;;15.27;100.00
51359;BME280;37448;51.588;7.248;2023-07-31T06:16:44;100269.41;;;15.26;100.00
51359;BME280;37448;51.588;7.248;2023-07-31T06:18:44;100266.84;;;15.25;100.00
51359;BME280;37448;51.588;7.248;2023-07-31T06:20:45;100271.16;;;15.26;100.00
51359;BME280;37448;51.588;7.248;2023-07-31T06:22:45;100261.50;;;15.26;100.00
51359;BME280;37448;51.588;7.248;2023-07-31T06:24:46;100265.91;;;15.26;100.00
51359;BME280;37448;51.588;7.248;2023-07-31T06:26:47;100269.31;;;15.28;100.00
51359;BME280;37448;51.588;7.248;2023-07-31T06:28:47;100267.75;;;15.24;100.00
51359;BME280;37448;51.588;7.248;2023-07-31T06:30:48;100270.34;;;15.25;100.00
51359;BME280;37448;51.588;7.248;2023-07-31T06:32:48;100269.41;;;15.26;100.00
51359;BME280;37448;51.588;7.248;2023-07-31T06:34:49;100265.75;;;15.29;100.00
51359;BME280;37448;51.588;7.248;2023-07-31T06:36:50;100264.06;;;15.28;100.00
51359;BME280;37448;51.588;7.248;2023-07-31T06:38:50;100263.22;;;15.27;100.00
51359;BME280;37448;51.588;7.248;2023-07-31T06:40:54;100262.34;;;15.27;100.00
51359;BME280;37448;51.588;7.248;2023-07-31T06:42:54;100256.31;;;15.25;100.00
51359;BME280;37448;51.588;7.248;2023-07-31T06:44:55;100261.50;;;15.26;100.00
51359;BME280;37448;51.588;7.248;2023-07-31T06:46:55;100255.38;;;15.26;100.00
51359;BME280;37448;51.588;7.248;2023-07-31T06:48:56;100255.38;;;15.26;100.00
51359;BME280;37448;51.588;7.248;2023-07-31T06:50:56;100252.53;;;15.30;100.00
51359;BME280;37448;51.588;7.248;2023-07-31T06:52:57;100252.41;;;15.33;100.00
51359;BME280;37448;51.588;7.248;2023-07-31T06:55:15;100251.78;;;15.28;100.00
51359;BME280;37448;51.588;7.248;2023-07-31T06:57:17;100253.53;;;15.28;100.00
51359;BME280;37448;51.588;7.248;2023-07-31T06:59:18;100251.69;;;15.30;100.00
51359;BME280;37448;51.588;7.248;2023-07-31T07:01:18;100257.75;;;15.32;100.00
51359;BME280;37448;51.588;7.248;2023-07-31T07:03:19;100253.38;;;15.31;100.00
51359;BME280;37448;51.588;7.248;2023-07-31T07:05:20;100251.41;;;15.36;100.00
51359;BME280;37448;51.588;7.248;2023-07-31T07:07:20;100251.41;;;15.36;100.00
51359;BME280;37448;51.588;7.248;2023-07-31T07:09:21;100255.81;;;15.35;100.00
51359;BME280;37448;51.588;7.248;2023-07-31T07:11:21;100258.38;;;15.37;100.00
51359;BME280;37448;51.588;7.248;2023-07-31T07:13:23;100252.19;;;15.38;100.00
51359;BME280;37448;51.588;7.248;2023-07-31T07:15:24;100254.03;;;15.36;100.00
51359;BME280;37448;51.588;7.248;2023-07-31T07:17:24;100252.09;;;15.40;100.00
51359;BME280;37448;51.588;7.248;2023-07-31T07:19:25;100252.09;;;15.40;100.00
51359;BME280;37448;51.588;7.248;2023-07-31T07:21:25;100249.41;;;15.41;100.00
51359;BME280;37448;51.588;7.248;2023-07-31T07:23:26;100242.28;;;15.43;100.00
51359;BME280;37448;51.588;7.248;2023-07-31T07:25:26;100244.00;;;15.44;100.00
51359;BME280;37448;51.588;7.248;2023-07-31T07:27:34;100240.59;;;15.42;100.00
51359;BME280;37448;51.588;7.248;2023-07-31T07:29:34;100246.56;;;15.46;100.00
51359;BME280;37448;51.588;7.248;2023-07-31T07:31:35;100245.84;;;15.42;100.00
51359;BME280;37448;51.588;7.248;2023-07-31T07:33:36;100241.31;;;15.46;100.00
51359;BME280;37448;51.588;7.248;2023-07-31T07:35:36;100245.69;;;15.45;100.00
51359;BME280;37448;51.588;7.248;2023-07-31T07:37:37;100241.97;;;15.49;100.00
51359;BME280;37448;51.588;7.248;2023-07-31T07:39:37;100237.75;;;15.47;100.00
51359;BME280;37448;51.588;7.248;2023-07-31T07:41:37;100231.63;;;15.46;100.00
51359;BME280;37448;51.588;7.248;2023-07-31T07:43:38;100226.34;;;15.46;100.00
51359;BME280;37448;51.588;7.248;2023-07-31T07:45:38;100245.53;;;15.48;100.00
51359;BME280;37448;51.588;7.248;2023-07-31T07:47:41;100234.03;;;15.51;100.00
51359;BME280;37448;51.588;7.248;2023-07-31T07:49:42;100232.47;;;15.47;100.00
51359;BME280;37448;51.588;7.248;2023-07-31T07:51:42;100243.00;;;15.47;100.00
51359;BME280;37448;51.588;7.248;2023-07-31T07:53:43;100233.31;;;15.47;100.00
51359;BME280;37448;51.588;7.248;2023-07-31T07:55:43;100235.88;;;15.49;100.00
51359;BME280;37448;51.588;7.248;2023-07-31T07:57:44;100239.34;;;15.49;100.00
51359;BME280;37448;51.588;7.248;2023-07-31T07:59:45;100234.34;;;15.45;100.00
51359;BME280;37448;51.588;7.248;2023-07-31T08:01:45;100233.31;;;15.47;100.00
51359;BME280;37448;51.588;7.248;2023-07-31T08:03:46;100237.03;;;15.43;100.00
51359;BME280;37448;51.588;7.248;2023-07-31T08:05:47;100233.47;;;15.44;100.00
51359;BME280;37448;51.588;7.248;2023-07-31T08:07:47;100230.06;;;15.42;100.00
51359;BME280;37448;51.588;7.248;2023-07-31T08:09:48;100236.72;;;15.49;100.00
51359;BME280;37448;51.588;7.248;2023-07-31T08:11:48;100216.44;;;15.52;100.00
51359;BME280;37448;51.588;7.248;2023-07-31T08:13:49;100218.94;;;15.55;100.00
51359;BME280;37448;51.588;7.248;2023-07-31T08:15:49;100208.34;;;15.56;100.00
51359;BME280;37448;51.588;7.248;2023-07-31T08:17:50;100214.53;;;15.55;100.00
51359;BME280;37448;51.588;7.248;2023-07-31T08:19:50;100218.88;;;15.56;100.00
51359;BME280;37448;51.588;7.248;2023-07-31T08:21:51;100213.53;;;15.58;100.00
51359;BME280;37448;51.588;7.248;2023-07-31T08:23:51;100220.66;;;15.56;100.00
51359;BME280;37448;51.588;7.248;2023-07-31T08:25:52;100216.06;;;15.59;100.00
51359;BME280;37448;51.588;7.248;2023-07-31T08:27:52;100207.41;;;15.57;100.00
51359;BME280;37448;51.588;7.248;2023-07-31T08:29:52;100209.88;;;15.60;100.00
51359;BME280;37448;51.588;7.248;2023-07-31T08:31:53;100205.72;;;15.56;100.00
51359;BME280;37448;51.588;7.248;2023-07-31T08:33:53;100204.72;;;15.59;100.00
51359;BME280;37448;51.588;7.248;2023-07-31T08:35:54;100200.38;;;15.58;100.00
51359;BME280;37448;51.588;7.248;2023-07-31T08:37:54;100209.06;;;15.60;100.00
51359;BME280;37448;51.588;7.248;2023-07-31T08:39:55;100209.81;;;15.62;100.00
51359;BME280;37448;51.588;7.248;2023-07-31T08:41:58;100202.16;;;15.57;100.00
51359;BME280;37448;51.588;7.248;2023-07-31T08:44:00;100205.34;;;15.64;100.00
51359;BME280;37448;51.588;7.248;2023-07-31T08:46:02;100206.25;;;15.63;100.00
51359;BME280;37448;51.588;7.248;2023-07-31T08:48:03;100208.94;;;15.61;100.00
51359;BME280;37448;51.588;7.248;2023-07-31T08:50:04;100204.56;;;15.62;100.00
51359;BME280;37448;51.588;7.248;2023-07-31T08:52:05;100198.38;;;15.63;100.00
51359;BME280;37448;51.588;7.248;2023-07-31T08:54:06;100200.28;;;15.59;100.00
51359;BME280;37448;51.588;7.248;2023-07-31T08:56:07;100211.13;;;15.53;100.00
51359;BME280;37448;51.588;7.248;2023-07-31T08:58:07;100210.25;;;15.53;100.00
51359;BME280;37448;51.588;7.248;2023-07-31T09:00:09;100207.72;;;15.51;100.00
51359;BME280;37448;51.588;7.248;2023-07-31T09:02:11;100205.91;;;15.52;100.00
51359;BME280;37448;51.588;7.248;2023-07-31T09:04:13;100197.19;;;15.51;100.00
51359;BME280;37448;51.588;7.248;2023-07-31T09:06:15;100211.84;;;15.57;100.00
51359;BME280;37448;51.588;7.248;2023-07-31T09:08:21;100199.66;;;15.54;100.00
51359;BME280;37448;51.588;7.248;2023-07-31T09:10:21;100202.16;;;15.57;100.00
51359;BME280;37448;51.588;7.248;2023-07-31T09:12:22;100203.69;;;15.61;100.00
51359;BME280;37448;51.588;7.248;2023-07-31T09:14:24;100211.69;;;15.60;100.00
51359;BME280;37448;51.588;7.248;2023-07-31T09:16:28;100209.13;;;15.58;100.00
51359;BME280;37448;51.588;7.248;2023-07-31T09:18:52;100200.13;;;15.62;100.00
51359;BME280;37448;51.588;7.248;2023-07-31T09:21:05;100215.09;;;15.62;100.00
51359;BME280;37448;51.588;7.248;2023-07-31T09:23:15;100211.69;;;15.60;100.00
51359;BME280;37448;51.588;7.248;2023-07-31T09:25:24;100201.06;;;15.61;100.00
51359;BME280;37448;51.588;7.248;2023-07-31T09:27:25;100213.22;;;15.64;100.00
51359;BME280;37448;51.588;7.248;2023-07-31T09:29:27;100200.50;;;15.55;100.00
51359;BME280;37448;51.588;7.248;2023-07-31T09:31:46;100197.75;;;15.58;100.00
51359;BME280;37448;51.588;7.248;2023-07-31T09:33:56;100199.59;;;15.56;100.00
51359;BME280;37448;51.588;7.248;2023-07-31T09:35:58;100198.53;;;15.60;100.00
51359;BME280;37448;51.588;7.248;2023-07-31T09:38:00;100200.13;;;15.62;100.00
51359;BME280;37448;51.588;7.248;2023-07-31T09:40:00;100188.00;;;15.60;100.00
51359;BME280;37448;51.588;7.248;2023-07-31T09:42:01;100191.56;;;15.59;100.00
51359;BME280;37448;51.588;7.248;2023-07-31T09:44:01;100190.63;;;15.60;100.00
51359;BME280;37448;51.588;7.248;2023-07-31T09:46:01;100188.78;;;15.62;100.00
51359;BME280;37448;51.588;7.248;2023-07-31T09:48:02;100183.50;;;15.62;100.00
51359;BME280;37448;51.588;7.248;2023-07-31T09:50:07;100173.13;;;15.59;100.00
51359;BME280;37448;51.588;7.248;2023-07-31T09:52:11;100184.19;;;15.65;100.00
51359;BME280;37448;51.588;7.248;2023-07-31T09:54:13;100187.47;;;15.71;100.00
51359;BME280;37448;51.588;7.248;2023-07-31T09:56:14;100178.47;;;15.75;100.00
51359;BME280;37448;51.588;7.248;2023-07-31T09:58:14;100173.97;;;15.77;100.00
51359;BME280;37448;51.588;7.248;2023-07-31T10:00:18;100171.19;;;15.80;100.00
51359;BME280;37448;51.588;7.248;2023-07-31T10:02:21;100177.59;;;15.74;100.00
51359;BME280;37448;51.588;7.248;2023-07-31T10:04:27;100176.47;;;15.80;100.00
51359;BME280;37448;51.588;7.248;2023-07-31T10:06:28;100178.16;;;15.81;100.00
51359;BME280;37448;51.588;7.248;2023-07-31T10:08:30;100179.03;;;15.82;100.00
51359;BME280;37448;51.588;7.248;2023-07-31T10:10:32;100174.38;;;15.87;100.00
51359;BME280;37448;51.588;7.248;2023-07-31T10:12:36;100178.88;;;15.85;100.00
51359;BME280;37448;51.588;7.248;2023-07-31T10:14:37;100167.28;;;15.89;100.00
51359;BME280;37448;51.588;7.248;2023-07-31T10:16:39;100166.47;;;15.87;100.00
51359;BME280;37448;51.588;7.248;2023-07-31T10:18:41;100162.91;;;15.88;100.00
51359;BME280;37448;51.588;7.248;2023-07-31T10:20:42;100177.84;;;15.87;100.00
51359;BME280;37448;51.588;7.248;2023-07-31T10:22:46;100174.09;;;15.93;100.00
51359;BME280;37448;51.588;7.248;2023-07-31T10:24:46;100172.16;;;15.97;100.00
51359;BME280;37448;51.588;7.248;2023-07-31T10:26:48;100175.22;;;16.05;100.00
51359;BME280;37448;51.588;7.248;2023-07-31T10:28:50;100172.53;;;16.06;100.00
51359;BME280;37448;51.588;7.248;2023-07-31T10:30:53;100166.88;;;15.97;100.00